createdAt,value
2018-07-22T00:03:18.000Z,43.295
2018-07-22T00:13:19.000Z,42.86
2018-07-22T00:23:19.000Z,42.823
2018-07-22T00:33:19.000Z,43.051
2018-07-22T00:43:19.000Z,42.928
2018-07-22T00:53:19.000Z,42.825
2018-07-22T01:03:19.000Z,42.711
2018-07-22T01:13:19.000Z,42.863
2018-07-22T01:23:19.000Z,42.903
2018-07-22T01:33:19.000Z,42.945
2018-07-22T01:43:19.000Z,42.831
2018-07-22T01:53:19.000Z,42.873
2018-07-22T02:03:19.000Z,42.893
2018-07-22T02:13:19.000Z,43.098
2018-07-22T02:23:19.000Z,43.272
2018-07-22T02:33:19.000Z,43.203
2018-07-22T02:43:19.000Z,43.31
2018-07-22T02:53:19.000Z,43.539
2018-07-22T03:03:19.000Z,43.546
2018-07-22T03:13:19.000Z,43.713
2018-07-22T03:23:19.000Z,43.699
2018-07-22T03:33:19.000Z,43.928
2018-07-22T03:43:19.000Z,43.627
2018-07-22T03:53:19.000Z,43.756
2018-07-22T04:03:19.000Z,43.699
2018-07-22T04:13:19.000Z,43.639
2018-07-22T04:23:19.000Z,43.87
2018-07-22T04:33:19.000Z,43.647
2018-07-22T04:43:19.000Z,43.986
2018-07-22T04:53:19.000Z,43.866
2018-07-22T05:03:19.000Z,43.635
2018-07-22T05:13:19.000Z,43.502
2018-07-22T05:23:19.000Z,43.591
2018-07-22T05:33:19.000Z,43.406
2018-07-22T05:43:19.000Z,43.345
2018-07-22T05:53:19.000Z,43.03
2018-07-22T06:03:19.000Z,43.261
2018-07-22T06:13:19.000Z,43.175
2018-07-22T06:23:19.000Z,42.947
2018-07-22T06:33:19.000Z,43.044
2018-07-22T06:43:19.000Z,43.079
2018-07-22T06:53:19.000Z,42.84
2018-07-22T07:03:19.000Z,43.154
2018-07-22T07:13:19.000Z,42.946
2018-07-22T07:23:19.000Z,42.343
2018-07-22T07:33:19.000Z,41.934
2018-07-22T07:43:19.000Z,41.89
2018-07-22T07:53:19.000Z,41.296
2018-07-22T08:03:19.000Z,40.92
2018-07-22T08:13:19.000Z,40.478
2018-07-22T08:23:20.000Z,40.164
2018-07-22T08:33:20.000Z,39.603
2018-07-22T08:43:20.000Z,38.653
2018-07-22T08:53:20.000Z,38.668
2018-07-22T09:03:20.000Z,37.48
2018-07-22T09:13:20.000Z,36.489
2018-07-22T09:23:20.000Z,35.673
2018-07-22T09:43:20.000Z,33.661
2018-07-22T09:53:20.000Z,33.299
2018-07-22T10:03:20.000Z,32.521
2018-07-22T10:13:20.000Z,32.152
2018-07-22T10:23:20.000Z,31.385
2018-07-22T10:33:20.000Z,31.305
2018-07-22T10:43:20.000Z,31.259
2018-07-22T10:53:20.000Z,30.914
2018-07-22T11:03:20.000Z,30.761
2018-07-22T11:23:20.000Z,31.371
2018-07-22T11:33:20.000Z,30.773
2018-07-22T11:43:20.000Z,31.151
2018-07-22T11:53:20.000Z,31.388
2018-07-22T12:03:20.000Z,31.399
2018-07-22T12:13:20.000Z,31.585
2018-07-22T12:23:21.000Z,30.885
2018-07-22T12:43:20.000Z,31.574
2018-07-22T12:53:20.000Z,30.954
2018-07-22T13:13:20.000Z,31.992
2018-07-22T13:23:20.000Z,30.662
2018-07-22T13:33:20.000Z,31.166
2018-07-22T13:43:20.000Z,31.382
2018-07-22T13:53:20.000Z,31.011
2018-07-22T14:03:20.000Z,30.676
2018-07-22T14:13:20.000Z,30.819
2018-07-22T14:23:20.000Z,31.018
2018-07-22T14:33:20.000Z,31.031
2018-07-22T14:43:21.000Z,30.987
2018-07-22T15:03:20.000Z,30.975
2018-07-22T15:13:20.000Z,31.099
2018-07-22T15:23:20.000Z,31.044
2018-07-22T15:33:20.000Z,31.057
2018-07-22T15:43:20.000Z,31.19
2018-07-22T15:53:20.000Z,31.329
2018-07-22T16:03:20.000Z,31.553
2018-07-22T16:13:21.000Z,31.755
2018-07-22T16:23:21.000Z,31.947
2018-07-22T16:33:21.000Z,32.073
2018-07-22T16:43:22.000Z,32.114
2018-07-22T16:53:21.000Z,31.999
2018-07-22T17:03:21.000Z,31.93
2018-07-22T17:13:21.000Z,31.963
2018-07-22T17:23:21.000Z,32.117
2018-07-22T17:33:21.000Z,32.151
2018-07-22T17:43:24.000Z,32.349
2018-07-22T17:53:21.000Z,32.125
2018-07-22T18:03:22.000Z,32.249
2018-07-22T18:13:21.000Z,32.226
2018-07-22T18:23:21.000Z,32.378
2018-07-22T18:33:21.000Z,32.448
2018-07-22T18:43:21.000Z,32.457
2018-07-22T18:53:21.000Z,32.735
2018-07-22T19:03:21.000Z,32.724
2018-07-22T19:13:21.000Z,32.957
2018-07-22T19:23:21.000Z,33.231
2018-07-22T19:33:21.000Z,33.384
2018-07-22T19:43:21.000Z,33.605
2018-07-22T19:53:21.000Z,33.747
2018-07-22T20:03:21.000Z,34.025
2018-07-22T20:13:21.000Z,34.149
2018-07-22T20:23:21.000Z,34.455
2018-07-22T20:33:21.000Z,34.654
2018-07-22T20:43:21.000Z,34.687
2018-07-22T20:53:21.000Z,34.928
2018-07-22T21:03:21.000Z,35.147
2018-07-22T21:13:21.000Z,35.324
2018-07-22T21:23:21.000Z,36.328
2018-07-22T21:33:21.000Z,36.071
2018-07-22T21:43:21.000Z,36.245
2018-07-22T21:53:21.000Z,36.131
2018-07-22T22:03:21.000Z,36.027
2018-07-22T22:13:21.000Z,35.991
2018-07-22T22:23:21.000Z,35.988
2018-07-22T22:33:21.000Z,36.007
2018-07-22T22:43:21.000Z,36.147
2018-07-22T22:53:21.000Z,36.321
2018-07-22T23:03:21.000Z,36.419
2018-07-22T23:13:21.000Z,36.472
2018-07-22T23:23:21.000Z,36.547
2018-07-22T23:33:21.000Z,36.61
2018-07-22T23:43:21.000Z,36.795
2018-07-22T23:53:21.000Z,36.726
